Time;durP1;ratioP1;P1;durP2;ratioP2;P2;SDS_P1;SDS_P2;PMS_P1;PMS_P2;Temp;Humidity;BMP_temperature;BMP_pressure;BME280_temperature;BME280_humidity;BME280_pressure;Samples;Min_cycle;Max_cycle;Signal;HPM_P1;HPM_P2
2023/04/15 00:01:22;;;;;;;9.50;4.65;;;;;;;11.34;51.91;100654.66;5057848;28;20119;-64
2023/04/15 00:03:51;;;;;;;9.15;5.07;;;;;;;11.27;52.23;100661.25;5054354;28;20529;-64
2023/04/15 00:06:18;;;;;;;9.35;4.80;;;;;;;11.26;51.80;100662.38;5062642;28;20617;-64
2023/04/15 00:08:44;;;;;;;9.05;5.05;;;;;;;11.23;52.25;100668.44;5051685;28;20040;-64
2023/04/15 00:11:09;;;;;;;11.95;5.13;;;;;;;11.22;52.39;100664.00;5052353;28;20391;-64
2023/04/15 00:13:34;;;;;;;11.07;5.15;;;;;;;11.18;52.93;100657.28;5060343;28;20476;-64
2023/04/15 00:16:00;;;;;;;13.40;5.47;;;;;;;11.15;52.87;100660.56;5075975;28;20035;-64
2023/04/15 00:18:26;;;;;;;9.75;5.50;;;;;;;11.12;52.87;100663.91;5091496;28;20027;-64
2023/04/15 00:20:52;;;;;;;11.60;5.20;;;;;;;11.09;53.32;100663.59;5077559;28;20028;-64
2023/04/15 00:23:17;;;;;;;9.23;5.30;;;;;;;11.03;53.56;100657.13;5075385;28;20064;-64
2023/04/15 00:25:43;;;;;;;14.32;5.93;;;;;;;11.01;53.53;100660.16;5089491;28;20068;-64
2023/04/15 00:28:09;;;;;;;10.13;5.50;;;;;;;10.99;53.37;100658.75;5085312;28;20091;-64
2023/04/15 00:30:34;;;;;;;10.65;5.60;;;;;;;10.99;53.70;100650.41;5078560;28;20020;-64
2023/04/15 00:33:01;;;;;;;7.93;5.82;;;;;;;10.97;53.62;100659.00;5088868;28;20032;-64
2023/04/15 00:35:26;;;;;;;7.20;5.38;;;;;;;10.93;54.00;100652.31;5074188;28;20027;-64
2023/04/15 00:37:52;;;;;;;9.95;6.07;;;;;;;10.94;53.82;100664.25;5091842;28;20426;-64
2023/04/15 00:40:20;;;;;;;9.77;6.22;;;;;;;10.87;53.80;100658.88;5084345;28;20064;-64
2023/04/15 00:42:45;;;;;;;12.23;5.95;;;;;;;10.84;54.26;100664.94;5070841;28;20035;-65
2023/04/15 00:45:11;;;;;;;9.32;6.72;;;;;;;10.80;54.55;100658.22;5078088;28;20028;-64
2023/04/15 00:47:38;;;;;;;8.85;5.93;;;;;;;10.81;54.42;100657.16;5081684;28;20395;-64
2023/04/15 00:50:03;;;;;;;8.40;6.50;;;;;;;10.81;54.35;100660.78;5089141;28;20050;-64
2023/04/15 00:52:29;;;;;;;13.68;6.80;;;;;;;10.75;54.28;100666.50;5090383;28;20487;-64
2023/04/15 00:54:54;;;;;;;12.45;6.38;;;;;;;10.73;54.24;100663.16;5090628;28;20055;-64
2023/04/15 00:57:21;;;;;;;15.98;7.20;;;;;;;10.71;54.63;100657.03;5076714;28;20671;-65
2023/04/15 00:59:46;;;;;;;9.93;6.13;;;;;;;10.67;54.76;100658.63;5077929;28;20028;-64
2023/04/15 01:02:11;;;;;;;13.32;6.88;;;;;;;10.62;54.83;100659.41;5078201;28;20486;-65
2023/04/15 01:04:37;;;;;;;10.82;6.30;;;;;;;10.59;55.08;100653.53;5087822;28;20566;-64
2023/04/15 01:07:02;;;;;;;10.80;6.70;;;;;;;10.56;55.22;100660.44;5088941;28;20028;-64
2023/04/15 01:09:28;;;;;;;14.05;6.28;;;;;;;10.54;55.02;100652.38;5085097;28;20036;-64
2023/04/15 01:11:53;;;;;;;10.15;6.50;;;;;;;10.51;54.85;100654.84;5070835;28;20037;-64
2023/04/15 01:14:18;;;;;;;13.88;7.00;;;;;;;10.46;54.66;100650.06;5072074;28;20036;-64
2023/04/15 01:16:44;;;;;;;10.30;6.13;;;;;;;10.46;54.82;100652.84;5083205;28;20374;-64
2023/04/15 01:19:10;;;;;;;8.45;6.20;;;;;;;10.42;54.98;100657.22;5082260;28;20029;-64
2023/04/15 01:21:39;;;;;;;13.38;6.32;;;;;;;10.40;55.01;100656.63;5071574;28;20025;-64
2023/04/15 01:24:10;;;;;;;12.27;6.15;;;;;;;10.39;55.08;100660.50;5070256;28;20063;-64
2023/04/15 01:26:39;;;;;;;14.27;6.95;;;;;;;10.37;55.06;100657.13;5078072;28;20464;-66
2023/04/15 01:29:05;;;;;;;10.50;6.32;;;;;;;10.30;54.88;100659.28;5076078;28;20032;-64
2023/04/15 01:31:31;;;;;;;10.43;6.45;;;;;;;10.24;54.90;100661.09;5070467;28;20111;-63
2023/04/15 01:33:57;;;;;;;10.05;6.28;;;;;;;10.18;55.51;100662.13;5070771;28;20063;-64
2023/04/15 01:36:22;;;;;;;8.52;6.57;;;;;;;10.16;55.94;100669.84;5075475;28;20425;-64
2023/04/15 01:38:48;;;;;;;13.27;7.18;;;;;;;10.14;55.65;100668.41;5075736;28;20127;-64
2023/04/15 01:41:13;;;;;;;11.50;6.93;;;;;;;10.11;55.87;100657.84;5081978;28;20040;-64
2023/04/15 01:43:39;;;;;;;9.15;7.07;;;;;;;10.07;56.44;100658.34;5088800;28;20485;-64
2023/04/15 01:46:05;;;;;;;11.40;6.50;;;;;;;10.09;56.18;100658.09;5090855;28;20507;-63
2023/04/15 01:48:31;;;;;;;9.55;6.53;;;;;;;10.08;56.19;100657.25;5074527;28;20032;-63
2023/04/15 01:50:58;;;;;;;11.52;6.78;;;;;;;10.05;56.30;100657.75;5075886;28;20089;-63
2023/04/15 01:53:24;;;;;;;11.38;6.95;;;;;;;10.04;56.40;100660.78;5079953;28;20066;-63
2023/04/15 01:55:50;;;;;;;11.90;6.82;;;;;;;10.06;55.86;100656.69;5074178;28;20037;-63
2023/04/15 01:58:17;;;;;;;12.35;6.97;;;;;;;10.06;55.99;100651.13;5068625;28;20115;-64
2023/04/15 02:00:42;;;;;;;12.77;7.13;;;;;;;10.08;55.29;100645.31;5088206;28;20490;-64
2023/04/15 02:03:08;;;;;;;13.35;7.47;;;;;;;10.06;55.55;100653.06;5088765;28;20032;-64
2023/04/15 02:05:34;;;;;;;10.27;6.93;;;;;;;10.04;55.25;100646.94;5081036;28;20016;-64
2023/04/15 02:07:59;;;;;;;12.65;7.43;;;;;;;10.01;55.59;100647.44;5069397;28;20372;-64
2023/04/15 02:10:25;;;;;;;10.50;7.30;;;;;;;9.96;55.64;100650.97;5070226;28;20056;-64
2023/04/15 02:12:50;;;;;;;13.55;7.50;;;;;;;9.94;55.80;100655.94;5069917;28;20025;-63
2023/04/15 02:15:16;;;;;;;13.85;6.93;;;;;;;9.87;55.41;100648.91;5082250;28;20479;-63
2023/04/15 02:17:44;;;;;;;14.07;7.50;;;;;;;9.87;55.53;100660.00;5074251;28;20021;-63
2023/04/15 02:20:10;;;;;;;13.27;7.40;;;;;;;9.79;55.76;100670.41;5077485;28;20386;-64
2023/04/15 02:22:36;;;;;;;11.85;7.20;;;;;;;9.74;56.00;100663.91;5090041;28;20023;-65
2023/04/15 02:25:01;;;;;;;11.27;6.90;;;;;;;9.73;56.13;100665.03;5078065;28;20374;-64
2023/04/15 02:27:27;;;;;;;11.43;7.63;;;;;;;9.69;56.19;100674.94;5070722;28;20032;-64
2023/04/15 02:29:53;;;;;;;13.52;7.00;;;;;;;9.67;56.49;100675.19;5069878;28;20099;-64
2023/04/15 02:32:19;;;;;;;11.05;6.78;;;;;;;9.67;56.86;100683.50;5080354;28;20026;-64
2023/04/15 02:34:44;;;;;;;9.15;6.78;;;;;;;9.63;56.73;100682.34;5083232;28;20470;-65
2023/04/15 02:37:11;;;;;;;8.98;7.22;;;;;;;9.62;56.76;100686.16;5088181;28;20525;-64
2023/04/15 02:39:36;;;;;;;8.90;7.03;;;;;;;9.61;56.86;100689.22;5086645;28;20028;-64
2023/04/15 02:42:03;;;;;;;12.98;7.90;;;;;;;9.58;56.71;100687.75;5089875;28;20039;-64
2023/04/15 02:44:30;;;;;;;10.90;7.80;;;;;;;9.60;56.68;100682.81;5080761;28;20017;-63
2023/04/15 02:46:55;;;;;;;13.27;7.82;;;;;;;9.61;56.63;100681.72;5071068;28;20032;-64
2023/04/15 02:49:21;;;;;;;13.27;8.45;;;;;;;9.58;56.32;100680.28;5076893;28;20089;-64
2023/04/15 02:51:48;;;;;;;12.20;7.93;;;;;;;9.61;56.18;100686.44;5087774;28;20511;-64
2023/04/15 02:54:23;;;;;;;12.32;7.80;;;;;;;9.57;56.81;100691.63;5093269;28;20056;-64
2023/04/15 02:56:49;;;;;;;11.32;8.25;;;;;;;9.62;56.40;100693.66;5093167;28;20485;-64
2023/04/15 02:59:15;;;;;;;10.65;8.25;;;;;;;9.57;56.43;100692.47;5094009;28;20036;-65
2023/04/15 03:01:40;;;;;;;14.50;7.95;;;;;;;9.54;56.24;100687.41;5083868;28;20024;-64
2023/04/15 03:04:07;;;;;;;11.23;7.93;;;;;;;9.54;56.38;100694.91;5092057;28;20024;-63
2023/04/15 03:06:33;;;;;;;12.30;8.07;;;;;;;9.51;56.84;100693.50;5079718;28;20517;-63
2023/04/15 03:08:59;;;;;;;12.52;8.60;;;;;;;9.50;56.48;100694.56;5075806;28;20059;-64
2023/04/15 03:11:26;;;;;;;16.13;8.95;;;;;;;9.48;56.48;100702.28;5093118;28;20055;-64
2023/04/15 03:13:51;;;;;;;14.70;8.55;;;;;;;9.49;56.94;100700.34;5092189;28;20044;-64
2023/04/15 03:16:16;;;;;;;11.32;7.80;;;;;;;9.44;56.84;100690.03;5060015;28;20039;-64
2023/04/15 03:18:41;;;;;;;9.88;8.20;;;;;;;9.39;56.41;100692.69;5061728;28;20103;-64
2023/04/15 03:21:07;;;;;;;14.75;8.05;;;;;;;9.39;56.61;100701.00;5052067;28;20062;-64
2023/04/15 03:23:32;;;;;;;12.65;8.15;;;;;;;9.37;57.09;100700.41;5068139;28;20036;-64
2023/04/15 03:26:01;;;;;;;11.52;8.48;;;;;;;9.32;56.92;100706.72;5073374;28;20376;-64
2023/04/15 03:28:26;;;;;;;14.45;8.38;;;;;;;9.31;57.61;100709.72;5072272;28;20078;-64
2023/04/15 03:30:51;;;;;;;11.30;8.23;;;;;;;9.28;57.05;100713.84;5058781;28;20464;-64
2023/04/15 03:33:16;;;;;;;11.70;8.80;;;;;;;9.25;57.05;100716.25;5054916;28;20044;-64
2023/04/15 03:35:42;;;;;;;14.00;8.27;;;;;;;9.24;57.02;100714.59;5054615;28;20418;-64
2023/04/15 03:38:07;;;;;;;13.07;8.15;;;;;;;9.21;57.59;100717.84;5052395;28;20098;-64
2023/04/15 03:40:33;;;;;;;13.82;8.60;;;;;;;9.17;57.55;100719.44;5052147;28;20498;-64
2023/04/15 03:42:58;;;;;;;13.35;8.80;;;;;;;9.14;57.46;100717.16;5052026;28;20116;-64
2023/04/15 03:45:24;;;;;;;14.32;8.40;;;;;;;9.06;57.69;100726.69;5052049;28;20424;-64
2023/04/15 03:47:50;;;;;;;11.93;8.45;;;;;;;9.04;57.59;100729.72;5065794;28;20039;-64
2023/04/15 03:50:15;;;;;;;15.88;8.60;;;;;;;8.97;57.83;100729.00;5066851;28;20032;-63
2023/04/15 03:52:41;;;;;;;11.80;8.77;;;;;;;8.94;57.55;100735.03;5063391;28;20029;-64
2023/04/15 03:55:07;;;;;;;9.65;8.07;;;;;;;8.98;57.61;100739.00;5070948;28;20048;-64
2023/04/15 03:57:36;;;;;;;11.07;8.73;;;;;;;8.92;57.49;100736.34;5071712;28;20021;-64
2023/04/15 04:00:03;;;;;;;13.10;8.90;;;;;;;8.88;57.82;100736.00;5072052;28;20070;-64
2023/04/15 04:02:28;;;;;;;13.85;9.27;;;;;;;8.88;58.23;100736.00;5059880;28;20480;-64
2023/04/15 04:04:53;;;;;;;11.45;9.32;;;;;;;8.85;57.64;100753.13;5053675;28;20033;-64
2023/04/15 04:07:19;;;;;;;12.38;9.55;;;;;;;8.80;58.32;100744.69;5049911;28;20133;-64
2023/04/15 04:09:44;;;;;;;10.43;8.65;;;;;;;8.82;58.52;100748.91;5051376;28;20044;-64
2023/04/15 04:12:10;;;;;;;11.70;9.68;;;;;;;8.82;58.41;100756.38;5050980;28;20072;-64
2023/04/15 04:14:35;;;;;;;11.88;9.35;;;;;;;8.82;58.75;100753.59;5070016;28;20056;-64
2023/04/15 04:17:00;;;;;;;12.23;9.38;;;;;;;8.83;58.76;100758.88;5076909;28;20090;-64
2023/04/15 04:19:26;;;;;;;13.02;9.45;;;;;;;8.92;58.51;100770.44;5083492;28;20303;-63
2023/04/15 04:21:51;;;;;;;11.90;9.80;;;;;;;8.87;58.53;100767.53;5068313;28;20074;-63
2023/04/15 04:24:17;;;;;;;11.43;9.45;;;;;;;8.97;58.61;100778.00;5089749;28;20059;-64
2023/04/15 04:26:42;;;;;;;12.73;9.63;;;;;;;9.02;58.56;100780.88;5080203;28;20024;-63
2023/04/15 04:29:07;;;;;;;15.50;10.38;;;;;;;8.96;58.48;100779.94;5070962;28;20025;-63
2023/04/15 04:31:33;;;;;;;11.95;9.27;;;;;;;9.04;58.67;100778.72;5070485;28;20104;-64
2023/04/15 04:33:58;;;;;;;11.60;8.77;;;;;;;9.08;57.93;100786.28;5070714;28;20031;-64
2023/04/15 04:36:23;;;;;;;12.05;9.77;;;;;;;9.04;58.25;100782.31;5081943;28;20082;-64
2023/04/15 04:38:48;;;;;;;13.35;10.02;;;;;;;9.03;58.05;100786.16;5085195;28;20619;-64
2023/04/15 04:41:14;;;;;;;13.10;10.13;;;;;;;9.07;59.04;100795.66;5089488;28;20032;-64
2023/04/15 04:43:39;;;;;;;14.35;9.90;;;;;;;9.02;58.98;100795.53;5081340;28;20028;-64
2023/04/15 04:46:05;;;;;;;12.85;10.07;;;;;;;9.04;58.60;100804.47;5069945;28;20020;-64
2023/04/15 04:48:30;;;;;;;11.98;10.48;;;;;;;9.05;58.32;100806.13;5071481;28;20111;-64
2023/04/15 04:50:55;;;;;;;13.50;10.30;;;;;;;9.05;58.26;100799.78;5083963;28;20020;-64
2023/04/15 04:53:21;;;;;;;13.60;10.00;;;;;;;9.07;58.69;100803.94;5089092;28;20145;-64
2023/04/15 04:55:46;;;;;;;11.25;9.98;;;;;;;9.09;58.41;100817.56;5083121;28;20416;-64
2023/04/15 04:58:11;;;;;;;12.27;10.20;;;;;;;9.12;58.46;100819.00;5090861;28;20028;-64
2023/04/15 05:00:37;;;;;;;12.13;9.80;;;;;;;9.09;58.50;100823.94;5085003;28;20024;-64
2023/04/15 05:03:03;;;;;;;11.70;9.90;;;;;;;9.08;58.90;100822.28;5075999;28;20043;-64
2023/04/15 05:05:28;;;;;;;11.15;10.05;;;;;;;9.08;58.69;100825.03;5070962;28;20033;-64
2023/04/15 05:07:53;;;;;;;11.32;9.93;;;;;;;9.06;58.75;100832.72;5078658;28;20416;-64
2023/04/15 05:10:19;;;;;;;11.55;10.15;;;;;;;9.06;59.41;100835.50;5091023;28;20028;-64
2023/04/15 05:12:44;;;;;;;11.18;9.88;;;;;;;9.05;59.13;100839.38;5090466;28;20039;-64
2023/04/15 05:15:09;;;;;;;11.25;9.80;;;;;;;9.08;59.34;100838.03;5090301;28;20048;-64
2023/04/15 05:17:35;;;;;;;14.73;10.93;;;;;;;9.08;58.85;100847.19;5079727;28;20039;-64
2023/04/15 05:20:01;;;;;;;12.60;10.38;;;;;;;9.10;58.97;100850.53;5074577;28;20046;-65
2023/04/15 05:22:26;;;;;;;15.70;10.00;;;;;;;9.09;58.95;100854.41;5090591;28;20024;-64
2023/04/15 05:24:52;;;;;;;14.07;10.77;;;;;;;9.14;59.38;100859.22;5087263;28;20578;-64
2023/04/15 05:27:18;;;;;;;13.02;10.63;;;;;;;9.15;58.72;100855.34;5090447;28;20020;-64
2023/04/15 05:29:43;;;;;;;12.70;10.13;;;;;;;9.13;59.08;100870.53;5087350;28;20491;-64
2023/04/15 05:32:09;;;;;;;12.18;10.32;;;;;;;9.17;59.23;100874.50;5080660;28;20190;-64
2023/04/15 05:34:34;;;;;;;12.95;10.57;;;;;;;9.17;59.22;100875.34;5071180;28;20036;-65
2023/04/15 05:37:00;;;;;;;14.15;11.30;;;;;;;9.15;59.42;100880.28;5079655;28;20485;-64
2023/04/15 05:39:25;;;;;;;13.35;10.13;;;;;;;9.09;59.20;100882.09;5090085;28;20509;-64
2023/04/15 05:41:51;;;;;;;11.90;10.52;;;;;;;9.15;59.35;100894.13;5078273;28;20410;-64
2023/04/15 05:44:16;;;;;;;13.30;10.88;;;;;;;9.16;59.39;100904.13;5069775;28;20035;-64
2023/04/15 05:46:42;;;;;;;12.23;10.77;;;;;;;9.10;59.91;100897.63;5086344;28;20036;-64
2023/04/15 05:49:07;;;;;;;13.68;11.63;;;;;;;9.09;59.83;100898.72;5084486;28;20090;-65
2023/04/15 05:51:32;;;;;;;12.50;11.05;;;;;;;9.06;60.12;100904.72;5079424;28;20027;-67
2023/04/15 05:53:58;;;;;;;12.30;10.80;;;;;;;9.11;60.16;100909.53;5073917;28;20037;-65
2023/04/15 05:56:25;;;;;;;12.88;11.52;;;;;;;9.10;59.78;100908.69;5084746;28;20107;-71
2023/04/15 05:58:51;;;;;;;11.70;10.50;;;;;;;9.12;60.22;100916.78;5090174;28;20138;-63
2023/04/15 06:01:16;;;;;;;12.13;10.60;;;;;;;9.14;59.86;100922.06;5090803;28;20657;-63
2023/04/15 06:03:42;;;;;;;13.63;11.00;;;;;;;9.15;59.88;100923.75;5075064;28;20031;-65
2023/04/15 06:06:07;;;;;;;12.80;11.43;;;;;;;9.18;59.80;100923.25;5070672;28;20039;-64
2023/04/15 06:08:33;;;;;;;12.43;10.82;;;;;;;9.19;60.32;100934.09;5071151;28;20028;-66
2023/04/15 06:10:59;;;;;;;14.00;11.88;;;;;;;9.24;60.02;100934.22;5077309;28;20024;-65
2023/04/15 06:13:24;;;;;;;14.45;11.38;;;;;;;9.25;60.10;100929.53;5090846;28;20386;-66
2023/04/15 06:15:49;;;;;;;14.20;11.55;;;;;;;9.30;59.79;100937.94;5090989;28;20107;-65
2023/04/15 06:18:15;;;;;;;12.52;11.23;;;;;;;9.28;60.27;100940.97;5090001;28;20107;-66
2023/04/15 06:20:40;;;;;;;13.70;12.23;;;;;;;9.35;60.24;100951.88;5086966;28;20020;-65
2023/04/15 06:23:05;;;;;;;14.50;11.98;;;;;;;9.41;60.50;100955.63;5074635;28;20021;-65
2023/04/15 06:25:31;;;;;;;12.02;10.80;;;;;;;9.50;59.79;100954.16;5067361;28;20056;-65
2023/04/15 06:27:56;;;;;;;13.93;11.48;;;;;;;9.59;60.26;100948.03;5072278;28;20107;-65
2023/04/15 06:30:21;;;;;;;12.50;10.77;;;;;;;9.64;59.70;100958.38;5074064;28;20040;-66
2023/04/15 06:32:47;;;;;;;12.30;10.65;;;;;;;9.69;59.76;100963.16;5087176;28;20039;-66
2023/04/15 06:35:12;;;;;;;13.40;11.15;;;;;;;9.78;59.91;100967.22;5087333;28;20536;-69
2023/04/15 06:37:38;;;;;;;13.80;10.60;;;;;;;9.86;59.99;100963.22;5075982;28;20024;-65
2023/04/15 06:40:04;;;;;;;13.15;11.05;;;;;;;9.91;59.77;100972.53;5079400;28;20047;-66
2023/04/15 06:42:29;;;;;;;14.77;11.60;;;;;;;10.02;59.84;100985.50;5084385;28;20024;-65
2023/04/15 06:44:55;;;;;;;15.40;11.52;;;;;;;10.07;59.70;100996.69;5071799;28;20024;-63
2023/04/15 06:47:21;;;;;;;12.90;11.60;;;;;;;10.12;59.27;100982.09;5073065;28;20111;-65
2023/04/15 06:49:46;;;;;;;13.43;11.85;;;;;;;10.16;59.45;100991.59;5078624;28;20032;-64
2023/04/15 06:52:11;;;;;;;13.20;11.82;;;;;;;10.20;59.06;100986.38;5076978;28;20081;-64
2023/04/15 06:54:37;;;;;;;14.45;11.20;;;;;;;10.23;59.39;100995.06;5087179;28;20506;-64
2023/04/15 06:57:02;;;;;;;12.85;10.88;;;;;;;10.26;59.34;101000.16;5074233;28;20032;-63
2023/04/15 06:59:27;;;;;;;12.25;10.93;;;;;;;10.23;59.22;101005.31;5076716;28;20460;-64
2023/04/15 07:01:53;;;;;;;17.73;11.60;;;;;;;10.24;59.45;101007.00;5083753;28;20047;-64
2023/04/15 07:04:19;;;;;;;12.70;11.25;;;;;;;10.28;59.63;101014.59;5077378;28;20039;-64
2023/04/15 07:06:44;;;;;;;12.00;10.63;;;;;;;10.34;59.38;101014.72;5090412;28;20057;-65
2023/04/15 07:09:10;;;;;;;13.10;11.45;;;;;;;10.39;59.79;101015.66;5085022;28;20032;-63
2023/04/15 07:11:35;;;;;;;14.43;10.82;;;;;;;10.39;60.08;101023.97;5073681;28;20455;-62
2023/04/15 07:14:01;;;;;;;12.55;10.73;;;;;;;10.39;59.87;101034.25;5072214;28;20487;-65
2023/04/15 07:16:26;;;;;;;12.60;11.10;;;;;;;10.39;60.35;101035.09;5076498;28;20032;-65
2023/04/15 07:18:51;;;;;;;12.90;11.43;;;;;;;10.49;60.17;101040.84;5084566;28;20028;-65
2023/04/15 07:21:17;;;;;;;13.82;11.13;;;;;;;10.54;60.60;101040.09;5076429;28;20036;-64
2023/04/15 07:23:42;;;;;;;14.15;12.02;;;;;;;10.62;60.19;101045.25;5084886;28;20463;-65
2023/04/15 07:26:08;;;;;;;13.38;11.60;;;;;;;10.73;60.09;101040.72;5091556;28;20031;-66
2023/04/15 07:28:33;;;;;;;13.43;11.75;;;;;;;10.79;59.95;101048.88;5078423;28;20035;-66
2023/04/15 07:30:58;;;;;;;13.85;11.10;;;;;;;10.83;60.19;101052.00;5082114;28;20036;-62
2023/04/15 07:33:24;;;;;;;15.10;12.30;;;;;;;10.91;59.78;101053.53;5077345;28;20095;-64
2023/04/15 07:35:49;;;;;;;14.30;12.30;;;;;;;11.00;59.79;101057.56;5091003;28;20455;-64
2023/04/15 07:38:17;;;;;;;15.52;12.50;;;;;;;11.11;60.11;101061.38;5071649;28;20101;-65
2023/04/15 07:40:42;;;;;;;13.77;12.23;;;;;;;11.22;59.57;101072.41;5074470;28;20129;-65
2023/04/15 07:43:08;;;;;;;13.38;11.98;;;;;;;11.28;58.94;101068.63;5072320;28;20020;-65
2023/04/15 07:45:34;;;;;;;13.98;11.02;;;;;;;11.39;58.42;101072.41;5081922;28;20055;-65
2023/04/15 07:48:00;;;;;;;12.32;11.02;;;;;;;11.48;58.33;101081.19;5078105;28;20024;-65
2023/04/15 07:50:26;;;;;;;13.55;10.70;;;;;;;11.54;57.84;101088.47;5072605;28;20066;-66
2023/04/15 07:52:51;;;;;;;11.60;10.25;;;;;;;11.63;57.76;101080.56;5072630;28;20531;-66
2023/04/15 07:55:20;;;;;;;12.30;10.30;;;;;;;11.74;57.48;101085.16;5072067;28;20054;-65
2023/04/15 07:57:46;;;;;;;10.63;9.38;;;;;;;11.77;56.49;101091.06;5069548;28;20044;-66
2023/04/15 08:00:12;;;;;;;13.32;9.90;;;;;;;11.76;56.14;101094.13;5072534;28;20024;-66
2023/04/15 08:02:37;;;;;;;11.20;9.45;;;;;;;11.77;56.08;101095.78;5075075;28;20039;-65
2023/04/15 08:05:03;;;;;;;10.65;9.55;;;;;;;11.82;56.41;101093.06;5089877;28;20444;-65
2023/04/15 08:07:29;;;;;;;11.95;9.18;;;;;;;11.88;56.51;101107.94;5088467;28;20048;-66
2023/04/15 08:09:54;;;;;;;11.20;9.75;;;;;;;11.90;56.39;101101.00;5081333;28;20425;-65
2023/04/15 08:12:19;;;;;;;10.85;9.18;;;;;;;11.97;56.20;101106.41;5074986;28;20028;-66
2023/04/15 08:14:45;;;;;;;11.00;8.90;;;;;;;12.03;55.70;101110.97;5053823;28;20044;-66
2023/04/15 08:17:10;;;;;;;9.40;8.27;;;;;;;12.07;55.06;101112.13;5052146;28;20025;-66
2023/04/15 08:19:36;;;;;;;8.73;7.82;;;;;;;12.10;54.24;101117.16;5051485;28;20025;-66
2023/04/15 08:22:01;;;;;;;10.60;8.57;;;;;;;12.14;54.69;101114.69;5051674;28;20035;-66
2023/04/15 08:24:27;;;;;;;9.38;8.30;;;;;;;12.23;55.39;101121.53;5051769;28;20041;-66
2023/04/15 08:26:52;;;;;;;10.40;9.05;;;;;;;12.34;54.91;101131.69;5051085;28;20029;-66
2023/04/15 08:29:17;;;;;;;11.95;9.00;;;;;;;12.40;55.26;101127.03;5069842;28;20119;-66
2023/04/15 08:31:43;;;;;;;9.88;8.63;;;;;;;12.48;55.10;101129.34;5054380;28;20044;-66
2023/04/15 08:34:10;;;;;;;9.40;8.27;;;;;;;12.51;54.55;101134.41;5071914;28;20021;-66
2023/04/15 08:36:35;;;;;;;9.88;8.63;;;;;;;12.58;54.78;101140.63;5072140;28;20017;-66
2023/04/15 08:39:01;;;;;;;10.10;9.05;;;;;;;12.71;55.15;101133.81;5070433;28;20028;-66
2023/04/15 08:41:38;;;;;;;10.07;8.63;;;;;;;12.87;54.21;101152.38;5071825;28;20028;-66
2023/04/15 08:44:04;;;;;;;10.30;8.75;;;;;;;12.96;53.53;101148.03;5070827;28;20039;-66
2023/04/15 08:46:31;;;;;;;10.80;7.82;;;;;;;13.10;54.00;101158.78;5052323;28;20056;-66
2023/04/15 08:48:58;;;;;;;8.85;6.82;;;;;;;13.19;51.95;101163.59;5050785;28;20021;-66
2023/04/15 08:51:23;;;;;;;7.03;6.32;;;;;;;13.20;51.04;101159.72;5050878;28;20013;-66
2023/04/15 08:53:49;;;;;;;7.13;6.30;;;;;;;13.22;51.03;101176.19;5051349;28;20036;-66
2023/04/15 08:56:15;;;;;;;8.05;6.35;;;;;;;13.17;50.49;101176.13;5050971;28;20480;-65
2023/04/15 08:58:43;;;;;;;9.00;6.35;;;;;;;13.18;50.97;101180.59;5050496;28;20025;-65
2023/04/15 09:01:10;;;;;;;8.18;5.90;;;;;;;13.29;50.90;101184.38;5065335;28;20107;-64
2023/04/15 09:03:36;;;;;;;7.88;6.18;;;;;;;13.40;50.31;101183.34;5063350;28;20078;-64
2023/04/15 09:06:04;;;;;;;7.95;5.40;;;;;;;13.42;49.34;101201.50;5070977;28;20029;-64
2023/04/15 09:08:29;;;;;;;5.88;4.90;;;;;;;13.42;48.03;101195.94;5070721;28;20108;-64
2023/04/15 09:10:55;;;;;;;10.68;4.93;;;;;;;13.39;48.37;101202.03;5069216;28;20119;-65
2023/04/15 09:13:20;;;;;;;7.03;4.93;;;;;;;13.41;47.98;101213.78;5074017;28;20044;-65
2023/04/15 09:15:46;;;;;;;9.40;5.50;;;;;;;13.44;47.63;101213.25;5090904;28;20024;-65
2023/04/15 09:18:14;;;;;;;8.20;5.45;;;;;;;13.46;47.57;101210.19;5089150;28;20024;-65
2023/04/15 09:20:41;;;;;;;7.80;5.70;;;;;;;13.49;47.94;101215.25;5078017;28;20024;-65
2023/04/15 09:23:13;;;;;;;6.70;5.30;;;;;;;13.53;48.24;101219.19;5091108;28;20043;-65
2023/04/15 09:25:41;;;;;;;7.75;4.85;;;;;;;13.56;48.21;101218.66;5089733;28;20089;-65
2023/04/15 09:28:07;;;;;;;8.55;5.70;;;;;;;13.58;48.21;101237.91;5090738;28;20099;-65
2023/04/15 09:30:32;;;;;;;6.75;5.45;;;;;;;13.58;47.87;101232.34;5091067;28;20111;-65
2023/04/15 09:33:01;;;;;;;6.78;5.75;;;;;;;13.59;48.08;101246.00;5091190;28;20457;-65
2023/04/15 09:35:27;;;;;;;9.20;6.40;;;;;;;13.66;48.29;101237.44;5090132;28;20027;-65
2023/04/15 09:38:00;;;;;;;9.90;5.88;;;;;;;13.69;48.58;101237.75;5078417;28;20502;-64
2023/04/15 09:40:37;;;;;;;6.75;5.03;;;;;;;13.71;47.94;101245.84;5081434;28;20020;-65
2023/04/15 09:43:04;;;;;;;7.97;5.40;;;;;;;13.75;48.36;101247.00;5069989;28;20025;-65
2023/04/15 09:45:30;;;;;;;5.90;5.15;;;;;;;13.72;47.03;101253.97;5070774;28;20086;-65
2023/04/15 09:48:16;;;;;;;8.95;5.35;;;;;;;13.73;47.49;101241.69;5078771;28;20486;-65
2023/04/15 09:50:42;;;;;;;7.97;5.95;;;;;;;13.81;47.81;101248.72;5079223;28;20043;-61
2023/04/15 09:53:15;;;;;;;6.20;4.88;;;;;;;13.88;47.99;101254.94;5070451;28;20036;-63
2023/04/15 09:55:44;;;;;;;5.38;4.00;;;;;;;13.92;47.38;101249.69;5065598;28;20016;-63
2023/04/15 09:58:20;;;;;;;6.85;3.55;;;;;;;13.97;46.42;101253.34;5070645;28;20033;-63
2023/04/15 10:00:48;;;;;;;4.22;3.83;;;;;;;13.99;45.71;101259.50;5069818;28;20131;-62
2023/04/15 10:03:19;;;;;;;5.15;4.32;;;;;;;14.07;47.17;101258.19;5082693;28;20032;-63
2023/04/15 10:05:46;;;;;;;5.63;4.55;;;;;;;14.13;47.86;101256.25;5082291;28;20031;-67
2023/04/15 10:08:28;;;;;;;5.20;4.35;;;;;;;14.14;47.72;101263.50;5079386;28;20058;-64
2023/04/15 10:10:57;;;;;;;4.50;3.97;;;;;;;14.17;46.69;101268.56;5079143;28;20033;-65
2023/04/15 10:13:24;;;;;;;6.10;4.47;;;;;;;14.18;47.17;101276.66;5078974;28;20048;-63
2023/04/15 10:16:09;;;;;;;6.00;4.97;;;;;;;14.25;47.84;101270.88;5082277;28;20035;-65
2023/04/15 10:18:39;;;;;;;4.97;4.47;;;;;;;14.24;46.67;101269.19;5081472;28;20743;-64
2023/04/15 10:21:05;;;;;;;6.07;4.68;;;;;;;14.27;47.12;101268.66;5091116;28;20036;-63
2023/04/15 10:23:31;;;;;;;5.35;4.68;;;;;;;14.25;46.93;101270.88;5084399;28;20119;-63
2023/04/15 10:25:58;;;;;;;6.18;4.18;;;;;;;14.31;47.24;101275.38;5093057;28;20563;-65
2023/04/15 10:28:25;;;;;;;7.43;4.70;;;;;;;14.39;46.97;101276.84;5086645;28;20086;-66
2023/04/15 10:30:51;;;;;;;5.22;4.72;;;;;;;14.38;47.43;101276.00;5087167;28;20039;-65
2023/04/15 10:33:20;;;;;;;4.60;4.03;;;;;;;14.39;45.68;101282.44;5087047;28;20074;-63
2023/04/15 10:35:48;;;;;;;3.70;3.30;;;;;;;14.36;45.12;101296.91;5090930;28;20028;-63
2023/04/15 10:38:37;;;;;;;4.78;3.35;;;;;;;14.38;45.77;101298.34;5090901;28;20028;-61
2023/04/15 10:41:11;;;;;;;4.07;3.22;;;;;;;14.36;44.76;101289.38;5072953;28;20042;-60
2023/04/15 10:43:37;;;;;;;4.22;3.45;;;;;;;14.38;44.80;101287.19;5083000;28;20039;-62
2023/04/15 10:46:05;;;;;;;3.53;3.20;;;;;;;14.38;45.41;101289.97;5081284;28;20025;-61
2023/04/15 10:48:30;;;;;;;7.32;3.53;;;;;;;14.43;45.42;101284.41;5077927;28;20059;-62
2023/04/15 10:50:57;;;;;;;4.72;3.30;;;;;;;14.49;46.03;101288.94;5083360;28;20020;-60
2023/04/15 10:53:29;;;;;;;4.93;3.72;;;;;;;14.51;45.09;101296.22;5078187;28;20024;-60
2023/04/15 10:55:56;;;;;;;5.50;4.18;;;;;;;14.58;46.64;101299.59;5074881;28;20028;-60
2023/04/15 10:58:23;;;;;;;4.30;3.90;;;;;;;14.53;45.87;101297.63;5084185;28;20110;-65
2023/04/15 11:00:53;;;;;;;5.10;3.60;;;;;;;14.59;46.05;101304.09;5092051;28;20497;-64
2023/04/15 11:03:41;;;;;;;4.90;4.10;;;;;;;14.62;46.11;101300.75;5073201;28;20032;-64
2023/04/15 11:06:06;;;;;;;3.75;3.45;;;;;;;14.59;45.58;101309.69;5072462;28;20071;-64
2023/04/15 11:09:01;;;;;;;4.93;3.45;;;;;;;14.61;45.90;101305.50;5072938;28;20021;-64
2023/04/15 11:12:04;;;;;;;4.53;3.10;;;;;;;14.58;44.40;101308.84;5075267;28;20175;-65
2023/04/15 11:14:32;;;;;;;4.05;3.22;;;;;;;14.54;43.65;101309.63;5076611;28;20115;-65
2023/04/15 11:16:58;;;;;;;5.47;3.83;;;;;;;14.51;43.97;101302.66;5092711;28;20107;-64
2023/04/15 11:19:23;;;;;;;4.47;3.15;;;;;;;14.52;43.80;101318.28;5078062;28;20107;-63